Time;durP1;ratioP1;P1;durP2;ratioP2;P2;SDS_P1;SDS_P2;PMS_P1;PMS_P2;Temp;Humidity;BMP_temperature;BMP_pressure;BME280_temperature;BME280_humidity;BME280_pressure;Samples;Min_cycle;Max_cycle;Signal;HPM_P1;HPM_P2
2022/02/09 00:02:28;;;;;;;2.00;1.40;;;10.90;37.10;;;;;;10499793;28;20223;-72
2022/02/09 00:07:38;;;;;;;2.10;1.50;;;11.00;37.10;;;;;;10500085;28;20246;-71
2022/02/09 00:12:47;;;;;;;3.03;1.70;;;11.00;37.00;;;;;;10499156;28;20250;-71
2022/02/09 00:17:58;;;;;;;4.10;1.93;;;10.90;36.70;;;;;;10502701;28;20223;-72
2022/02/09 00:34:26;;;;;;;3.33;2.30;;;10.70;36.50;;;;;;10500875;28;20243;-72
2022/02/09 00:45:20;;;;;;;5.57;2.57;;;10.60;36.30;;;;;;10497172;28;20235;-72
2022/02/09 01:12:16;;;;;;;4.20;2.43;;;10.10;35.80;;;;;;10498265;28;20219;-72
2022/02/09 01:38:48;;;;;;;4.50;2.43;;;9.80;36.60;;;;;;10503524;28;20224;-72
2022/02/09 01:51:12;;;;;;;4.43;2.87;;;9.70;36.40;;;;;;10501403;28;21085;-72
2022/02/09 02:00:28;;;;;;;3.97;2.63;;;9.60;36.20;;;;;;10508113;28;20727;-72
2022/02/09 02:05:33;;;;;;;3.53;2.43;;;9.50;36.00;;;;;;10504905;28;20240;-72
2022/02/09 02:10:46;;;;;;;3.90;2.40;;;9.40;36.10;;;;;;10506064;28;20228;-72
2022/02/09 02:21:22;;;;;;;3.70;2.30;;;9.40;36.20;;;;;;10506570;28;20227;-72
2022/02/09 02:26:41;;;;;;;3.00;2.13;;;9.40;35.70;;;;;;10507341;28;20232;-72
2022/02/09 02:32:20;;;;;;;4.07;2.30;;;9.40;35.90;;;;;;10501895;28;20231;-72
2022/02/09 02:59:35;;;;;;;2.97;2.30;;;9.40;35.80;;;;;;10506425;28;20237;-72
2022/02/09 03:10:31;;;;;;;2.83;2.13;;;9.30;35.60;;;;;;10503416;28;20224;-72
2022/02/09 03:15:40;;;;;;;3.80;2.40;;;9.30;35.60;;;;;;10499478;28;20254;-72
2022/02/09 03:20:48;;;;;;;2.50;2.30;;;9.30;35.60;;;;;;10503435;28;20231;-72
2022/02/09 03:26:10;;;;;;;2.13;1.90;;;9.30;35.90;;;;;;10498769;28;20232;-72
2022/02/09 03:31:33;;;;;;;4.27;2.27;;;9.30;35.80;;;;;;10503645;28;20235;-72
2022/02/09 03:47:36;;;;;;;3.17;2.47;;;9.40;35.50;;;;;;10494836;28;20231;-72
2022/02/09 03:58:01;;;;;;;3.00;2.43;;;9.30;35.40;;;;;;10471564;28;20229;-72
2022/02/09 04:03:11;;;;;;;4.07;2.50;;;9.30;35.30;;;;;;10498898;28;20570;-72
2022/02/09 04:08:17;;;;;;;2.63;2.33;;;9.20;35.10;;;;;;10503220;28;20234;-72
2022/02/09 04:13:28;;;;;;;3.43;2.50;;;9.20;35.10;;;;;;10506536;28;20782;-72
2022/02/09 04:40:03;;;;;;;4.40;2.50;;;9.00;35.00;;;;;;10502343;28;20227;-72
2022/02/09 04:45:34;;;;;;;2.70;2.50;;;8.90;34.80;;;;;;10502291;28;20234;-72
2022/02/09 04:50:51;;;;;;;3.07;2.77;;;8.80;34.80;;;;;;10511388;28;20226;-72
2022/02/09 04:55:59;;;;;;;2.93;2.63;;;8.60;34.50;;;;;;10513338;28;20250;-72
2022/02/09 05:01:12;;;;;;;2.80;2.57;;;8.50;34.80;;;;;;10508818;28;20224;-71
2022/02/09 05:27:49;;;;;;;3.97;2.70;;;8.20;35.10;;;;;;10497191;28;20234;-72
2022/02/09 05:32:52;;;;;;;4.23;2.70;;;8.20;35.30;;;;;;10521823;28;20229;-72
2022/02/09 05:37:57;;;;;;;4.43;3.30;;;8.20;35.40;;;;;;10522491;28;20231;-72
2022/02/09 05:43:00;;;;;;;14.43;12.37;;;8.20;35.20;;;;;;10518404;28;20238;-72
2022/02/09 05:53:36;;;;;;;8.20;6.83;;;8.10;35.20;;;;;;10499779;28;20227;-71
2022/02/09 05:58:48;;;;;;;13.70;10.00;;;8.10;35.20;;;;;;10514581;28;20228;-72
2022/02/09 06:03:51;;;;;;;10.17;8.00;;;8.10;35.30;;;;;;10512226;28;20258;-71
2022/02/09 06:08:56;;;;;;;6.13;5.53;;;8.10;35.40;;;;;;10520594;28;20235;-71
2022/02/09 06:14:21;;;;;;;5.43;3.80;;;8.10;37.50;;;;;;10519391;28;20246;-72
2022/02/09 06:19:47;;;;;;;4.20;3.17;;;8.20;36.70;;;;;;10513233;28;20261;-73
2022/02/09 06:24:52;;;;;;;5.13;3.60;;;8.20;35.70;;;;;;10510956;28;20228;-73
2022/02/09 06:29:55;;;;;;;6.57;3.60;;;8.30;35.50;;;;;;10507501;28;20227;-73
2022/02/09 06:34:58;;;;;;;5.17;3.87;;;8.30;35.50;;;;;;10501886;28;20250;-73
2022/02/09 06:40:03;;;;;;;7.33;5.57;;;8.30;35.50;;;;;;10507901;28;20225;-73
2022/02/09 06:45:13;;;;;;;14.77;8.47;;;8.30;35.30;;;;;;10503089;28;20220;-73
2022/02/09 06:50:22;;;;;;;13.53;9.60;;;8.20;35.40;;;;;;10506994;28;20319;-73
2022/02/09 06:55:27;;;;;;;13.60;7.50;;;8.20;35.40;;;;;;10528420;22;20227;-73
2022/02/09 07:00:34;;;;;;;7.90;4.80;;;8.30;35.30;;;;;;10521923;28;20220;-74
2022/02/09 07:05:38;;;;;;;6.67;4.00;;;8.20;35.30;;;;;;10514729;28;20258;-73
2022/02/09 07:10:43;;;;;;;6.23;4.30;;;8.20;35.50;;;;;;10515180;28;20224;-73
2022/02/09 07:15:50;;;;;;;3.60;3.30;;;8.20;35.50;;;;;;10510730;28;20258;-73
2022/02/09 07:20:59;;;;;;;3.43;3.13;;;8.20;35.50;;;;;;10512716;28;20228;-73
2022/02/09 07:26:11;;;;;;;4.93;3.03;;;8.20;35.40;;;;;;10512928;28;20224;-74
2022/02/09 07:31:15;;;;;;;5.70;3.23;;;8.10;35.50;;;;;;10508160;28;20231;-73
2022/02/09 07:36:18;;;;;;;3.77;3.17;;;8.10;35.60;;;;;;10507869;28;20223;-73
2022/02/09 07:41:22;;;;;;;5.53;3.00;;;8.00;35.70;;;;;;10508224;28;20230;-73
2022/02/09 07:46:39;;;;;;;8.37;3.80;;;8.00;36.00;;;;;;10511548;28;20238;-73
2022/02/09 07:51:53;;;;;;;5.73;3.77;;;8.00;36.00;;;;;;10507997;28;20714;-73
2022/02/09 07:56:58;;;;;;;8.47;4.27;;;8.10;36.00;;;;;;10502664;28;20227;-73
2022/02/09 08:02:01;;;;;;;5.00;3.40;;;8.10;36.00;;;;;;10501904;28;20667;-73
2022/02/09 08:07:05;;;;;;;4.27;3.40;;;8.20;36.20;;;;;;10510125;28;20223;-73
2022/02/09 08:12:32;;;;;;;8.80;3.87;;;8.30;36.20;;;;;;10504987;28;20219;-73
2022/02/09 08:28:46;;;;;;;6.73;3.50;;;8.60;36.60;;;;;;10501675;28;20231;-73
2022/02/09 08:33:49;;;;;;;5.30;3.67;;;8.70;36.70;;;;;;10510076;28;20334;-73
2022/02/09 08:39:07;;;;;;;3.80;3.43;;;8.90;36.80;;;;;;10491004;28;20224;-73
2022/02/09 08:44:12;;;;;;;5.33;3.20;;;9.20;36.90;;;;;;10491512;28;20234;-73
2022/02/09 08:49:15;;;;;;;7.97;3.40;;;9.40;37.10;;;;;;10499806;28;20232;-73
2022/02/09 08:54:19;;;;;;;3.00;2.20;;;9.50;37.20;;;;;;10500053;28;20247;-73
2022/02/09 08:59:27;;;;;;;5.10;2.27;;;9.80;37.50;;;;;;10502420;28;20227;-73
2022/02/09 09:04:34;;;;;;;3.70;2.57;;;10.00;36.60;;;;;;10495877;28;20227;-73
2022/02/09 09:09:49;;;;;;;3.53;2.40;;;10.20;36.70;;;;;;10501169;28;20234;-73
2022/02/09 09:58:18;;;;;;;3.53;2.50;;;10.90;35.40;;;;;;10473106;28;20785;-72
2022/02/09 10:03:34;;;;;;;5.30;2.67;;;11.00;35.60;;;;;;10507147;28;20310;-73
2022/02/09 10:31:08;;;;;;;2.97;2.53;;;11.70;35.20;;;;;;10433757;28;20817;-73
2022/02/09 10:36:15;;;;;;;3.20;2.40;;;11.80;35.50;;;;;;10503065;28;20277;-73
2022/02/09 10:41:25;;;;;;;4.77;2.77;;;11.90;35.60;;;;;;10504806;28;20219;-72
2022/02/09 10:46:29;;;;;;;3.90;2.27;;;12.10;35.70;;;;;;10505000;28;20220;-73
2022/02/09 10:51:40;;;;;;;3.73;2.20;;;12.20;35.70;;;;;;10500964;28;20220;-72
2022/02/09 10:56:46;;;;;;;3.63;2.27;;;12.40;35.30;;;;;;10510733;28;20230;-72
2022/02/09 11:01:50;;;;;;;2.50;1.90;;;12.50;35.50;;;;;;10508918;28;20228;-72
2022/02/09 11:06:55;;;;;;;2.73;2.30;;;12.70;35.20;;;;;;10508706;28;20612;-72
2022/02/09 11:12:03;;;;;;;3.73;2.00;;;12.80;35.20;;;;;;10507974;28;20273;-72
2022/02/09 11:17:07;;;;;;;4.67;2.50;;;13.00;35.30;;;;;;10508314;28;20312;-72
2022/02/09 11:22:21;;;;;;;3.63;1.87;;;13.10;35.10;;;;;;10504356;28;20653;-72
2022/02/09 11:27:31;;;;;;;1.73;1.50;;;13.20;34.50;;;;;;10504635;28;20247;-74
2022/02/09 11:32:42;;;;;;;3.30;1.90;;;13.30;34.40;;;;;;10507056;28;20232;-72
2022/02/09 11:37:54;;;;;;;2.27;1.80;;;13.30;34.70;;;;;;10502428;28;20227;-72
2022/02/09 11:43:04;;;;;;;4.07;2.30;;;13.40;34.70;;;;;;10505494;28;20575;-73
2022/02/09 11:48:30;;;;;;;3.53;2.07;;;13.50;34.90;;;;;;10504874;28;20277;-72
2022/02/09 12:10:13;;;;;;;2.70;1.70;;;14.00;33.80;;;;;;10459270;28;20651;-72
2022/02/09 12:21:38;;;;;;;2.83;1.97;;;14.20;33.30;;;;;;10457276;28;20224;-72
2022/02/09 12:26:56;;;;;;;2.53;1.83;;;14.30;33.70;;;;;;10461988;28;20220;-72
2022/02/09 12:31:59;;;;;;;3.00;1.90;;;14.40;32.40;;;;;;10457450;28;20582;-72
2022/02/09 12:37:16;;;;;;;2.10;1.90;;;14.40;33.40;;;;;;10460162;28;20273;-72
2022/02/09 12:42:20;;;;;;;2.10;1.93;;;14.50;31.80;;;;;;10450741;28;20791;-72
2022/02/09 12:47:29;;;;;;;3.33;2.20;;;14.50;32.70;;;;;;10444790;28;20228;-72
2022/02/09 12:52:35;;;;;;;2.27;1.83;;;14.50;31.70;;;;;;10439471;28;20228;-72
2022/02/09 12:57:40;;;;;;;3.77;2.77;;;14.50;32.40;;;;;;10439226;28;20225;-71
2022/02/09 13:02:45;;;;;;;2.33;1.97;;;14.50;32.40;;;;;;10442582;28;20601;-72
2022/02/09 13:07:58;;;;;;;2.97;2.60;;;14.50;31.80;;;;;;10438658;28;20221;-72
2022/02/09 13:13:06;;;;;;;3.20;2.30;;;14.50;31.70;;;;;;10430264;28;20240;-72
2022/02/09 13:18:33;;;;;;;2.13;1.87;;;14.50;32.00;;;;;;10414402;28;20647;-72
2022/02/09 13:23:58;;;;;;;3.77;2.23;;;14.50;32.10;;;;;;10413821;28;20225;-72
2022/02/09 14:17:45;;;;;;;2.40;2.20;;;14.70;31.80;;;;;;10431654;28;20228;-70
2022/02/09 14:54:58;;;;;;;3.13;2.83;;;14.80;31.90;;;;;;10386402;28;20665;-71
2022/02/09 15:00:11;;;;;;;12.33;8.63;;;14.80;31.90;;;;;;10389056;28;20718;-71
2022/02/09 15:11:01;;;;;;;3.73;3.13;;;14.80;31.90;;;;;;10386854;28;20229;-71
2022/02/09 15:16:15;;;;;;;6.37;5.07;;;14.80;31.90;;;;;;10389690;28;20208;-71
2022/02/09 15:21:27;;;;;;;13.23;11.60;;;14.70;31.80;;;;;;10393194;28;20232;-71
2022/02/09 15:26:31;;;;;;;7.97;6.83;;;14.70;31.80;;;;;;10383148;28;20718;-71
2022/02/09 15:31:41;;;;;;;6.93;4.63;;;14.80;31.90;;;;;;10383563;28;20241;-71
2022/02/09 15:37:02;;;;;;;14.93;13.03;;;14.80;32.40;;;;;;10382332;28;20889;-71
2022/02/09 15:42:33;;;;;;;16.17;12.67;;;14.70;31.80;;;;;;10380174;28;20233;-71
2022/02/09 16:20:38;;;;;;;9.33;4.77;;;14.50;31.70;;;;;;10421415;28;20249;-72
2022/02/09 16:25:39;;;;;;;10.27;5.20;;;14.40;31.70;;;;;;10418453;28;20226;-72
2022/02/09 16:46:52;;;;;;;10.30;8.00;;;14.00;31.60;;;;;;10417805;28;20220;-71
2022/02/09 16:52:02;;;;;;;21.40;13.50;;;13.90;31.80;;;;;;10429107;28;20230;-72
2022/02/09 17:08:22;;;;;;;21.30;13.80;;;13.70;31.80;;;;;;10430519;28;20245;-72
2022/02/09 17:18:50;;;;;;;15.63;14.07;;;13.20;32.20;;;;;;10425761;28;20227;-72
2022/02/09 17:23:58;;;;;;;18.37;12.73;;;13.10;31.80;;;;;;10421728;28;20225;-72
2022/02/09 17:29:03;;;;;;;24.43;19.83;;;12.90;31.70;;;;;;10410301;28;20225;-73
2022/02/09 17:34:19;;;;;;;30.93;25.03;;;12.80;31.60;;;;;;10391492;28;20226;-70
2022/02/09 17:53:22;;;;;;;28.47;21.97;;;12.60;31.70;;;;;;10385576;28;20224;-70
2022/02/09 17:55:56;;;;;;;19.00;14.77;;;12.20;31.80;;;;;;10428024;28;20228;-70
2022/02/09 18:01:01;;;;;;;25.80;21.43;;;12.00;31.60;;;;;;10425391;28;20230;-70
2022/02/09 18:06:15;;;;;;;21.13;18.83;;;11.90;31.70;;;;;;10426011;28;20240;-71
2022/02/09 18:11:31;;;;;;;15.83;13.63;;;11.70;31.90;;;;;;10429858;28;20228;-70
2022/02/09 18:33:06;;;;;;;12.10;9.10;;;11.20;32.20;;;;;;10413768;28;20224;-70
2022/02/09 18:38:30;;;;;;;16.87;13.07;;;11.10;32.30;;;;;;10422332;28;20229;-70
2022/02/09 18:43:39;;;;;;;11.90;9.50;;;11.00;32.40;;;;;;10423493;28;20267;-70
2022/02/09 18:56:50;;;;;;;11.07;9.97;;;11.00;32.40;;;;;;10428367;28;20257;-70
2022/02/09 18:59:59;;;;;;;11.37;8.17;;;10.90;32.30;;;;;;10426902;28;20228;-70
2022/02/09 19:05:17;;;;;;;13.20;10.30;;;10.80;32.30;;;;;;10420815;28;20239;-70
2022/02/09 19:16:03;;;;;;;9.63;8.63;;;10.60;32.30;;;;;;10425647;28;20227;-70
2022/02/09 19:26:42;;;;;;;13.13;9.90;;;10.50;32.40;;;;;;10425465;28;20229;-70
2022/02/09 19:32:06;;;;;;;7.30;6.60;;;10.40;32.30;;;;;;10426318;28;20229;-70
2022/02/09 19:48:01;;;;;;;14.43;9.47;;;9.90;32.90;;;;;;10418395;28;20312;-70
2022/02/09 19:53:23;;;;;;;11.73;7.67;;;9.70;33.00;;;;;;10415864;28;20224;-70
2022/02/09 19:58:38;;;;;;;10.60;8.47;;;9.50;33.10;;;;;;10414950;28;20224;-69
2022/02/09 20:03:43;;;;;;;9.40;7.23;;;9.30;33.50;;;;;;10419766;28;20232;-69
2022/02/09 20:08:46;;;;;;;8.13;7.33;;;9.20;33.70;;;;;;10431414;28;20225;-69
2022/02/09 20:13:50;;;;;;;9.63;8.63;;;9.20;33.60;;;;;;10419061;28;20222;-69
2022/02/09 20:18:56;;;;;;;10.33;9.13;;;9.10;33.60;;;;;;10420688;28;20222;-69
2022/02/09 20:24:04;;;;;;;10.50;9.43;;;9.00;34.00;;;;;;10422887;28;20299;-69
2022/02/09 20:29:11;;;;;;;9.23;7.40;;;9.00;33.80;;;;;;10431015;28;20232;-69
2022/02/09 20:34:24;;;;;;;8.87;7.43;;;9.00;33.70;;;;;;10427508;28;20225;-68
2022/02/09 20:39:31;;;;;;;10.37;6.67;;;8.90;33.80;;;;;;10423261;28;20268;-68
2022/02/09 20:44:40;;;;;;;8.57;6.77;;;8.80;33.60;;;;;;10429931;28;20229;-68
2022/02/09 20:49:45;;;;;;;7.93;6.83;;;8.80;33.80;;;;;;10424739;28;20241;-68
2022/02/09 20:54:48;;;;;;;7.60;6.90;;;8.70;33.80;;;;;;10429476;28;20823;-69
2022/02/09 20:59:53;;;;;;;8.33;6.63;;;8.60;33.70;;;;;;10425925;28;20663;-69
2022/02/09 21:05:09;;;;;;;10.10;8.77;;;8.50;33.60;;;;;;10426136;28;20889;-69
2022/02/09 21:10:28;;;;;;;8.40;7.50;;;8.20;33.90;;;;;;10419664;28;20232;-69
2022/02/09 21:15:45;;;;;;;9.40;8.40;;;8.00;33.90;;;;;;10424097;28;20767;-69
2022/02/09 21:21:14;;;;;;;8.03;7.23;;;7.90;34.20;;;;;;10423085;28;20882;-69
2022/02/09 21:32:13;;;;;;;9.20;7.60;;;7.80;34.40;;;;;;10422911;28;20224;-69
2022/02/09 21:58:45;;;;;;;9.53;8.60;;;7.50;34.80;;;;;;10424738;28;20222;-70
2022/02/09 22:20:15;;;;;;;7.07;6.37;;;7.40;34.50;;;;;;10381258;28;20986;-70
2022/02/09 22:57:41;;;;;;;6.90;6.20;;;7.10;34.60;;;;;;10421119;28;20709;-70
2022/02/09 23:02:50;;;;;;;5.77;5.13;;;7.10;34.80;;;;;;10416359;28;20229;-70
2022/02/09 23:08:10;;;;;;;7.53;6.83;;;6.90;34.50;;;;;;10420803;28;20236;-70
2022/02/09 23:13:20;;;;;;;7.00;6.30;;;7.00;34.50;;;;;;10411693;28;20237;-70
2022/02/09 23:18:51;;;;;;;8.53;6.87;;;6.90;34.50;;;;;;10420088;28;20236;-70
2022/02/09 23:24:16;;;;;;;7.43;6.63;;;6.80;34.40;;;;;;10417417;28;20315;-70
2022/02/09 23:56:46;;;;;;;6.93;5.40;;;6.20;35.50;;;;;;10378750;28;20233;-69
